Time;durP1;ratioP1;P1;durP2;ratioP2;P2;SDS_P1;SDS_P2;PMS_P1;PMS_P2;Temp;Humidity;BMP_temperature;BMP_pressure;BME280_temperature;BME280_humidity;BME280_pressure;Samples;Min_cycle;Max_cycle;Signal;HPM_P1;HPM_P2
2021/08/13 00:01:21;;;;;;;8.27;6.15;;;23.30;97.70;;;;;;5124710;27;20047;-79
2021/08/13 00:03:49;;;;;;;7.78;6.00;;;23.40;97.70;;;;;;5127206;27;20494;-79
2021/08/13 00:06:17;;;;;;;9.23;6.63;;;23.40;97.60;;;;;;5131263;27;20050;-79
2021/08/13 00:08:44;;;;;;;9.48;6.07;;;23.40;97.50;;;;;;5123447;27;20128;-79
2021/08/13 00:11:11;;;;;;;9.48;6.50;;;23.50;97.40;;;;;;5133742;27;20119;-79
2021/08/13 00:13:38;;;;;;;8.20;6.55;;;23.50;97.40;;;;;;5123681;27;20467;-79
2021/08/13 00:16:05;;;;;;;9.15;6.28;;;23.50;97.30;;;;;;5117887;27;20437;-79
2021/08/13 00:18:32;;;;;;;8.90;5.57;;;23.50;97.20;;;;;;5127025;27;20130;-80
2021/08/13 00:21:01;;;;;;;8.02;5.82;;;23.50;97.10;;;;;;5126900;27;20130;-78
2021/08/13 00:23:28;;;;;;;8.82;6.43;;;23.50;97.10;;;;;;5129726;27;20126;-78
2021/08/13 00:25:55;;;;;;;8.65;6.22;;;23.50;97.00;;;;;;5122914;27;20126;-79
2021/08/13 00:28:22;;;;;;;10.27;6.43;;;23.50;97.10;;;;;;5131547;27;20143;-78
2021/08/13 00:30:49;;;;;;;8.27;6.22;;;23.50;97.10;;;;;;5128178;27;20126;-79
2021/08/13 00:33:16;;;;;;;8.80;6.15;;;23.50;97.00;;;;;;5124859;27;20135;-78
2021/08/13 00:35:43;;;;;;;11.23;6.93;;;23.50;96.90;;;;;;5123180;27;20142;-80
2021/08/13 00:38:12;;;;;;;9.98;6.75;;;23.40;97.20;;;;;;5123588;27;20086;-80
2021/08/13 00:40:39;;;;;;;9.45;6.30;;;23.30;97.40;;;;;;5123707;27;20127;-78
2021/08/13 00:43:06;;;;;;;9.63;6.70;;;23.20;97.60;;;;;;5131140;27;20043;-78
2021/08/13 00:45:33;;;;;;;8.90;6.40;;;23.20;97.70;;;;;;5122638;27;20047;-80
2021/08/13 00:48:00;;;;;;;9.95;7.45;;;23.10;97.70;;;;;;5122723;27;20131;-80
2021/08/13 00:50:27;;;;;;;10.23;7.03;;;23.00;97.80;;;;;;5129019;27;20536;-79
2021/08/13 00:52:55;;;;;;;9.85;6.80;;;22.90;98.10;;;;;;5122388;27;20130;-79
2021/08/13 00:55:24;;;;;;;9.63;7.28;;;22.80;98.30;;;;;;5124683;27;21630;-80
2021/08/13 00:57:51;;;;;;;10.18;6.82;;;22.70;98.40;;;;;;5126315;27;20137;-77
2021/08/13 01:00:19;;;;;;;9.38;6.60;;;22.60;98.50;;;;;;5129550;27;20071;-80
2021/08/13 01:02:46;;;;;;;10.73;6.95;;;22.60;98.70;;;;;;5122351;27;20191;-78
2021/08/13 01:05:13;;;;;;;9.70;6.57;;;22.50;98.90;;;;;;5123476;27;20122;-80
2021/08/13 01:07:41;;;;;;;9.68;6.15;;;22.50;99.00;;;;;;5125440;27;20138;-80
2021/08/13 01:10:09;;;;;;;10.50;6.97;;;22.50;99.30;;;;;;5125057;27;20122;-77
2021/08/13 01:12:51;;;;;;;9.32;6.47;;;22.50;99.40;;;;;;5122204;27;20071;-79
2021/08/13 01:15:19;;;;;;;10.30;6.82;;;22.50;99.40;;;;;;5124801;27;20044;-78
2021/08/13 01:17:50;;;;;;;9.88;6.57;;;22.50;99.40;;;;;;5122491;27;20132;-78
2021/08/13 01:20:49;;;;;;;9.65;6.78;;;22.50;99.40;;;;;;5128836;27;20086;-79
2021/08/13 01:23:20;;;;;;;11.10;6.65;;;22.50;99.70;;;;;;5123786;27;20123;-79
2021/08/13 01:25:53;;;;;;;10.02;6.63;;;22.60;99.40;;;;;;5125643;27;20081;-80
2021/08/13 01:28:33;;;;;;;9.93;7.07;;;22.60;99.30;;;;;;5124072;27;20138;-79
2021/08/13 01:31:02;;;;;;;9.52;6.97;;;22.60;99.20;;;;;;5108153;27;20043;-79
2021/08/13 01:33:32;;;;;;;10.38;6.80;;;22.60;99.20;;;;;;5125580;27;20118;-80
2021/08/13 01:36:03;;;;;;;9.88;6.50;;;22.60;99.20;;;;;;5132355;27;20126;-80
2021/08/13 01:38:34;;;;;;;9.85;6.32;;;22.60;99.10;;;;;;5125187;27;20126;-80
2021/08/13 01:41:05;;;;;;;10.00;6.70;;;22.50;99.20;;;;;;5124634;27;20096;-80
2021/08/13 01:43:34;;;;;;;10.23;7.13;;;22.50;99.30;;;;;;5115093;27;20083;-78
2021/08/13 01:46:02;;;;;;;10.80;6.97;;;22.50;99.30;;;;;;5103634;28;20146;-80
2021/08/13 01:48:32;;;;;;;10.82;7.07;;;22.40;99.30;;;;;;5125043;27;20127;-77
2021/08/13 01:51:00;;;;;;;8.52;6.55;;;22.40;99.40;;;;;;5090326;27;20039;-78
2021/08/13 01:53:31;;;;;;;9.85;6.65;;;22.40;99.50;;;;;;5082366;28;20561;-80
2021/08/13 01:55:59;;;;;;;8.43;6.38;;;22.40;99.60;;;;;;5106893;28;20472;-79
2021/08/13 01:58:27;;;;;;;10.07;6.80;;;22.40;99.50;;;;;;5125427;28;20111;-78
2021/08/13 02:00:56;;;;;;;8.65;6.28;;;22.40;99.50;;;;;;5111858;28;20146;-81
2021/08/13 02:03:23;;;;;;;9.60;6.50;;;22.40;99.50;;;;;;5082503;28;20051;-79
2021/08/13 02:05:54;;;;;;;10.13;6.30;;;22.40;99.40;;;;;;5125486;28;20557;-78
2021/08/13 02:08:23;;;;;;;8.25;6.00;;;22.40;99.40;;;;;;5130551;27;20082;-80
2021/08/13 02:10:51;;;;;;;9.25;6.43;;;22.40;99.40;;;;;;5106825;28;20122;-80
2021/08/13 02:13:19;;;;;;;9.07;6.70;;;22.40;99.40;;;;;;5129821;28;20131;-79
2021/08/13 02:15:54;;;;;;;8.93;6.70;;;22.40;99.30;;;;;;5130701;28;20103;-80
2021/08/13 02:18:24;;;;;;;7.90;5.90;;;22.40;99.30;;;;;;5123458;28;20298;-80
2021/08/13 02:20:57;;;;;;;8.60;6.13;;;22.40;99.30;;;;;;5124764;27;20077;-79
2021/08/13 02:23:24;;;;;;;8.63;6.22;;;22.50;99.30;;;;;;5121995;27;20047;-79
2021/08/13 02:25:51;;;;;;;9.70;6.35;;;22.40;99.20;;;;;;5121327;28;20552;-80
2021/08/13 02:28:18;;;;;;;8.60;6.10;;;22.50;99.20;;;;;;5126924;27;20475;-79
2021/08/13 02:30:45;;;;;;;9.15;6.45;;;22.50;99.10;;;;;;5128863;27;20126;-79
2021/08/13 02:33:12;;;;;;;8.25;6.00;;;22.50;99.10;;;;;;5127497;27;20138;-79
2021/08/13 02:35:39;;;;;;;9.32;6.97;;;22.50;99.10;;;;;;5125226;27;20119;-79
2021/08/13 02:38:15;;;;;;;9.15;6.18;;;22.50;98.90;;;;;;5125564;27;20118;-80
2021/08/13 02:40:50;;;;;;;10.30;6.63;;;22.50;99.00;;;;;;5119449;27;20042;-78
2021/08/13 02:43:22;;;;;;;10.57;6.78;;;22.50;99.00;;;;;;5112824;27;20081;-80
2021/08/13 02:45:54;;;;;;;11.43;6.70;;;22.50;99.00;;;;;;5110764;27;20126;-80
2021/08/13 02:48:21;;;;;;;9.38;6.55;;;22.40;98.90;;;;;;5126680;27;20054;-80
2021/08/13 02:50:50;;;;;;;9.13;6.65;;;22.40;99.00;;;;;;5123981;27;20042;-80
2021/08/13 02:53:21;;;;;;;9.02;6.57;;;22.40;99.00;;;;;;5126302;27;20039;-78
2021/08/13 02:55:54;;;;;;;10.40;6.90;;;22.30;99.00;;;;;;5128485;27;20112;-80
2021/08/13 02:58:24;;;;;;;8.40;6.18;;;22.10;99.20;;;;;;5108329;27;20043;-79
2021/08/13 03:00:54;;;;;;;10.15;5.93;;;22.00;99.50;;;;;;5132891;27;20480;-80
2021/08/13 03:03:22;;;;;;;8.45;6.28;;;21.90;99.70;;;;;;5113222;27;20107;-79
2021/08/13 03:05:52;;;;;;;8.98;6.30;;;21.90;99.90;;;;;;5112712;28;20146;-78
2021/08/13 03:08:21;;;;;;;9.55;6.35;;;21.90;99.90;;;;;;5134120;27;20146;-79
2021/08/13 03:10:50;;;;;;;11.20;7.05;;;21.90;99.90;;;;;;5108141;27;20050;-78
2021/08/13 03:13:19;;;;;;;10.00;6.50;;;21.80;99.90;;;;;;5130190;27;20134;-80
2021/08/13 03:15:47;;;;;;;9.05;6.70;;;21.80;99.90;;;;;;5128179;27;20043;-76
2021/08/13 03:18:14;;;;;;;8.52;6.50;;;21.80;99.90;;;;;;5126396;27;20130;-78
2021/08/13 03:20:42;;;;;;;10.35;6.82;;;21.70;99.90;;;;;;5126521;27;20134;-78
2021/08/13 03:23:10;;;;;;;9.30;6.30;;;21.80;99.90;;;;;;5125909;27;20155;-76
2021/08/13 03:25:40;;;;;;;9.30;6.32;;;21.70;99.90;;;;;;5123933;27;20071;-74
2021/08/13 03:28:08;;;;;;;9.40;6.25;;;21.70;99.90;;;;;;5122991;27;20071;-80
2021/08/13 03:30:40;;;;;;;8.57;6.13;;;21.70;99.90;;;;;;5122668;27;20127;-77
2021/08/13 03:33:10;;;;;;;9.13;6.22;;;21.70;99.90;;;;;;5115349;27;20127;-79
2021/08/13 03:35:38;;;;;;;8.73;6.60;;;21.70;99.90;;;;;;5125591;27;20047;-78
2021/08/13 03:38:06;;;;;;;8.18;6.72;;;21.70;99.90;;;;;;5122928;27;20130;-80
2021/08/13 03:40:33;;;;;;;8.75;6.30;;;21.70;99.90;;;;;;5114709;27;20078;-80
2021/08/13 03:43:02;;;;;;;9.00;6.40;;;21.70;99.90;;;;;;5121825;27;20043;-78
2021/08/13 03:45:29;;;;;;;9.40;6.80;;;21.80;99.90;;;;;;5124504;27;20130;-78
2021/08/13 03:47:56;;;;;;;9.27;6.50;;;21.70;99.90;;;;;;5118065;27;20118;-78
2021/08/13 03:50:23;;;;;;;9.55;6.63;;;21.70;99.90;;;;;;5124000;27;20040;-77
2021/08/13 03:52:50;;;;;;;8.80;6.32;;;21.70;99.90;;;;;;5125172;27;20099;-77
2021/08/13 03:55:17;;;;;;;9.95;7.07;;;21.70;99.90;;;;;;5128747;27;20070;-77
2021/08/13 03:57:44;;;;;;;8.70;6.18;;;21.70;99.90;;;;;;5131994;27;20078;-77
2021/08/13 04:00:14;;;;;;;11.18;6.80;;;21.80;99.90;;;;;;5132530;27;20122;-77
2021/08/13 04:03:00;;;;;;;10.93;7.32;;;21.80;99.90;;;;;;5132760;27;20062;-79
2021/08/13 04:05:30;;;;;;;9.27;6.72;;;21.70;99.90;;;;;;5131894;27;20507;-79
2021/08/13 04:07:57;;;;;;;10.35;6.90;;;21.60;99.90;;;;;;5138749;27;20094;-78
2021/08/13 04:10:24;;;;;;;9.13;6.13;;;21.50;99.90;;;;;;5132633;27;20062;-81
2021/08/13 04:12:51;;;;;;;8.60;6.53;;;21.40;99.90;;;;;;5138341;27;20038;-80
2021/08/13 04:15:20;;;;;;;9.57;6.90;;;21.40;99.90;;;;;;5137993;27;20075;-78
2021/08/13 04:17:48;;;;;;;10.27;7.25;;;21.40;99.90;;;;;;5140620;27;20061;-78
2021/08/13 04:20:16;;;;;;;8.65;6.60;;;21.40;99.90;;;;;;5138325;27;20054;-76
2021/08/13 04:22:43;;;;;;;9.27;6.72;;;21.40;99.90;;;;;;5136921;27;20480;-76
2021/08/13 04:25:11;;;;;;;9.32;7.05;;;21.40;99.90;;;;;;5129995;27;20107;-80
2021/08/13 04:27:38;;;;;;;9.20;6.68;;;21.40;99.90;;;;;;5131881;27;20062;-79
2021/08/13 04:30:09;;;;;;;9.85;6.45;;;21.30;99.90;;;;;;5125897;28;20094;-78
2021/08/13 04:32:39;;;;;;;8.95;6.45;;;21.30;99.90;;;;;;5126500;28;20105;-80
2021/08/13 04:35:08;;;;;;;9.45;6.35;;;21.30;99.90;;;;;;5124855;28;20067;-78
2021/08/13 04:37:35;;;;;;;8.65;6.18;;;21.30;99.90;;;;;;5119130;28;20130;-78
2021/08/13 04:40:03;;;;;;;8.93;5.95;;;21.30;99.90;;;;;;5114669;28;20134;-80
2021/08/13 04:42:30;;;;;;;10.45;6.30;;;21.30;99.90;;;;;;5114477;28;20127;-77
2021/08/13 04:44:57;;;;;;;9.07;6.32;;;21.30;99.90;;;;;;5114382;28;20576;-80
2021/08/13 04:47:24;;;;;;;9.75;6.60;;;21.40;99.90;;;;;;5114829;28;20135;-78
2021/08/13 04:49:52;;;;;;;9.63;6.82;;;21.40;99.90;;;;;;5115644;28;20134;-79
2021/08/13 04:52:20;;;;;;;9.80;7.28;;;21.40;99.90;;;;;;5117068;28;20581;-77
2021/08/13 04:54:48;;;;;;;10.52;6.88;;;21.40;99.90;;;;;;5127266;28;20048;-79
2021/08/13 04:57:15;;;;;;;10.27;7.15;;;21.40;99.90;;;;;;5127131;28;20051;-80
2021/08/13 04:59:42;;;;;;;9.57;6.65;;;21.40;99.90;;;;;;5119420;28;20131;-78
2021/08/13 05:02:09;;;;;;;10.05;6.43;;;21.30;99.90;;;;;;5114505;28;20466;-78
2021/08/13 05:04:36;;;;;;;9.82;6.35;;;21.30;99.90;;;;;;5119414;28;20067;-80
2021/08/13 05:07:05;;;;;;;9.23;6.20;;;21.30;99.90;;;;;;5115185;28;20127;-79
2021/08/13 05:09:35;;;;;;;9.98;6.43;;;21.30;99.90;;;;;;5114211;28;20567;-78
2021/08/13 05:12:02;;;;;;;9.25;6.35;;;21.40;99.90;;;;;;5114583;28;20075;-80
2021/08/13 05:14:29;;;;;;;10.02;6.28;;;21.40;99.90;;;;;;5114047;28;20127;-78
2021/08/13 05:16:56;;;;;;;9.20;6.45;;;21.40;99.90;;;;;;5114250;28;20134;-79
2021/08/13 05:19:23;;;;;;;7.82;5.90;;;21.50;99.90;;;;;;5113673;28;20584;-79
2021/08/13 05:21:50;;;;;;;7.78;6.00;;;21.50;99.90;;;;;;5114297;28;20130;-79
2021/08/13 05:24:19;;;;;;;10.48;6.53;;;21.60;99.90;;;;;;5114116;28;20135;-77
2021/08/13 05:26:46;;;;;;;8.05;6.20;;;21.60;99.90;;;;;;5114384;28;20138;-80
2021/08/13 05:29:13;;;;;;;8.43;6.50;;;21.60;99.90;;;;;;5117061;28;20475;-80
2021/08/13 05:31:40;;;;;;;9.57;6.47;;;21.60;99.90;;;;;;5123283;28;20410;-75
2021/08/13 05:34:07;;;;;;;8.90;6.28;;;21.70;99.90;;;;;;5125557;28;20090;-78
2021/08/13 05:36:34;;;;;;;8.70;5.93;;;21.70;99.90;;;;;;5125097;28;20050;-79
2021/08/13 05:39:01;;;;;;;9.00;6.60;;;21.70;99.90;;;;;;5123274;28;20048;-76
2021/08/13 05:41:29;;;;;;;9.65;6.50;;;21.70;99.90;;;;;;5113686;28;20127;-80
2021/08/13 05:43:56;;;;;;;10.13;6.90;;;21.80;99.90;;;;;;5113684;28;20047;-80
2021/08/13 05:46:23;;;;;;;10.25;6.43;;;21.80;99.90;;;;;;5115205;28;20142;-77
2021/08/13 05:48:50;;;;;;;10.10;6.60;;;21.90;99.90;;;;;;5114478;28;20078;-78
2021/08/13 05:51:17;;;;;;;9.25;6.82;;;21.90;99.90;;;;;;5113660;28;20485;-79
2021/08/13 05:53:44;;;;;;;9.70;6.95;;;22.00;99.90;;;;;;5113735;28;20122;-79
2021/08/13 05:56:12;;;;;;;9.07;6.20;;;22.00;99.90;;;;;;5113333;28;20048;-79
2021/08/13 05:58:40;;;;;;;10.63;6.80;;;22.10;99.90;;;;;;5114313;28;20126;-79
2021/08/13 06:01:07;;;;;;;10.98;6.55;;;22.10;99.90;;;;;;5118036;28;20131;-79
2021/08/13 06:03:34;;;;;;;8.23;6.60;;;22.10;99.80;;;;;;5127193;28;20079;-80
2021/08/13 06:06:01;;;;;;;8.57;6.35;;;22.10;99.90;;;;;;5119571;28;20051;-79
2021/08/13 06:08:28;;;;;;;10.85;6.70;;;22.10;99.90;;;;;;5117798;28;20130;-79
2021/08/13 06:10:55;;;;;;;8.68;6.60;;;22.10;99.90;;;;;;5117594;28;20585;-79
2021/08/13 06:13:22;;;;;;;10.85;6.78;;;22.20;99.90;;;;;;5118030;28;20053;-79
2021/08/13 06:15:51;;;;;;;8.88;6.38;;;22.20;99.70;;;;;;5123406;28;20103;-78
2021/08/13 06:18:18;;;;;;;8.65;6.20;;;22.30;99.60;;;;;;5118775;28;20469;-78
2021/08/13 06:20:45;;;;;;;8.63;6.53;;;22.30;99.50;;;;;;5118019;28;20139;-78
2021/08/13 06:23:12;;;;;;;9.60;6.22;;;22.40;99.20;;;;;;5117470;28;20086;-79
2021/08/13 06:25:39;;;;;;;9.60;6.55;;;22.40;99.20;;;;;;5117517;28;20461;-78
2021/08/13 06:28:07;;;;;;;8.75;7.40;;;22.50;99.20;;;;;;5118177;28;20135;-78
2021/08/13 06:30:34;;;;;;;9.35;6.80;;;22.40;99.20;;;;;;5124924;28;20048;-79
2021/08/13 06:33:02;;;;;;;10.80;7.35;;;22.50;99.30;;;;;;5119562;28;20130;-80
2021/08/13 06:35:29;;;;;;;10.20;7.25;;;22.50;99.50;;;;;;5117188;28;20135;-80
2021/08/13 06:37:57;;;;;;;9.70;6.78;;;22.50;99.70;;;;;;5117055;28;20139;-78
2021/08/13 06:40:25;;;;;;;9.40;6.80;;;22.50;99.90;;;;;;5116947;28;20130;-79
2021/08/13 06:42:53;;;;;;;9.27;6.70;;;22.60;99.90;;;;;;5116958;28;20138;-79
2021/08/13 06:45:23;;;;;;;8.38;6.63;;;22.60;99.90;;;;;;5116793;28;20150;-78
2021/08/13 06:47:51;;;;;;;9.88;7.03;;;22.70;99.90;;;;;;5116904;28;20043;-79
2021/08/13 06:50:19;;;;;;;7.60;5.93;;;22.70;99.90;;;;;;5116853;28;20082;-80
2021/08/13 06:52:47;;;;;;;9.35;6.90;;;22.80;99.90;;;;;;5116511;28;20580;-79
2021/08/13 06:55:14;;;;;;;11.05;6.45;;;22.90;99.70;;;;;;5116712;28;20127;-79
2021/08/13 06:57:42;;;;;;;9.70;6.78;;;23.00;99.60;;;;;;5116602;28;20075;-79
2021/08/13 07:00:12;;;;;;;10.25;6.10;;;23.10;99.40;;;;;;5116799;28;20467;-79
2021/08/13 07:02:39;;;;;;;9.55;6.45;;;23.20;99.20;;;;;;5116577;28;20555;-80
2021/08/13 07:05:07;;;;;;;9.63;6.68;;;23.20;99.10;;;;;;5116549;28;20130;-77
2021/08/13 07:07:35;;;;;;;9.95;6.82;;;23.30;98.70;;;;;;5117842;28;20107;-80
2021/08/13 07:10:05;;;;;;;10.07;7.28;;;23.30;98.10;;;;;;5116750;28;20467;-80
2021/08/13 07:12:32;;;;;;;11.23;7.00;;;23.40;97.50;;;;;;5116259;28;20054;-80
2021/08/13 07:14:59;;;;;;;9.82;6.55;;;23.40;97.20;;;;;;5116256;28;20047;-80
2021/08/13 07:17:26;;;;;;;11.68;7.30;;;23.40;97.40;;;;;;5116495;28;20134;-79
2021/08/13 07:19:53;;;;;;;9.05;6.82;;;23.40;97.10;;;;;;5115988;28;20480;-79
2021/08/13 07:22:20;;;;;;;9.60;6.32;;;23.50;97.00;;;;;;5116179;28;20131;-78
2021/08/13 07:24:49;;;;;;;8.55;6.63;;;23.50;96.70;;;;;;5116504;28;20189;-78
2021/08/13 07:27:16;;;;;;;9.60;6.53;;;23.60;96.80;;;;;;5118862;28;20139;-78
2021/08/13 07:29:43;;;;;;;9.38;6.20;;;23.60;96.50;;;;;;5120968;28;20417;-80
2021/08/13 07:32:10;;;;;;;9.23;5.88;;;23.70;96.40;;;;;;5116128;28;20134;-79
2021/08/13 07:34:37;;;;;;;9.02;6.72;;;23.70;96.30;;;;;;5115969;28;20134;-78
2021/08/13 07:37:04;;;;;;;9.63;6.18;;;23.80;96.00;;;;;;5116489;28;20131;-79
2021/08/13 07:39:31;;;;;;;10.48;6.50;;;23.80;95.90;;;;;;5116654;28;20132;-80
2021/08/13 07:42:00;;;;;;;10.02;6.47;;;23.90;95.60;;;;;;5116245;28;20044;-80
2021/08/13 07:44:27;;;;;;;9.25;6.07;;;23.90;95.50;;;;;;5115800;28;20135;-78
2021/08/13 07:46:54;;;;;;;7.93;5.75;;;24.00;95.40;;;;;;5115553;28;20138;-80
2021/08/13 07:49:21;;;;;;;9.00;5.82;;;24.00;95.30;;;;;;5115994;28;20082;-78
2021/08/13 07:51:48;;;;;;;8.02;5.55;;;24.10;95.20;;;;;;5115964;28;20556;-77
2021/08/13 07:54:15;;;;;;;7.85;4.97;;;24.20;95.30;;;;;;5116081;28;20126;-78
2021/08/13 07:56:42;;;;;;;7.05;5.10;;;24.20;95.30;;;;;;5116982;28;20078;-78
2021/08/13 07:59:10;;;;;;;8.52;5.53;;;24.40;95.20;;;;;;5116296;28;20131;-78
2021/08/13 08:01:37;;;;;;;7.30;5.32;;;24.40;95.00;;;;;;5116077;28;20163;-78
2021/08/13 08:04:05;;;;;;;7.93;5.28;;;24.60;94.90;;;;;;5115377;28;20138;-76
2021/08/13 08:06:32;;;;;;;8.15;5.07;;;24.60;94.80;;;;;;5115901;28;20058;-74
2021/08/13 08:08:59;;;;;;;7.20;4.80;;;24.70;94.60;;;;;;5116373;28;20062;-75
2021/08/13 08:11:26;;;;;;;8.93;4.97;;;24.70;94.40;;;;;;5119561;27;20127;-76
2021/08/13 08:13:53;;;;;;;10.45;5.28;;;24.80;94.20;;;;;;5140826;27;20533;-74
2021/08/13 08:16:21;;;;;;;8.18;4.95;;;24.90;94.00;;;;;;5136357;27;20069;-75
2021/08/13 08:18:48;;;;;;;6.78;4.80;;;25.00;94.00;;;;;;5128063;27;20518;-75
2021/08/13 08:21:15;;;;;;;8.13;4.65;;;25.00;94.00;;;;;;5123836;27;20492;-75
2021/08/13 08:23:43;;;;;;;8.30;5.30;;;25.10;93.90;;;;;;5133687;27;20074;-76
2021/08/13 08:26:10;;;;;;;8.20;5.00;;;25.20;93.70;;;;;;5133274;27;20049;-75
2021/08/13 08:28:41;;;;;;;10.50;5.60;;;25.30;93.20;;;;;;5133021;27;20085;-75
2021/08/13 08:31:09;;;;;;;9.02;5.50;;;25.40;93.00;;;;;;5143269;27;20043;-74
2021/08/13 08:33:37;;;;;;;9.27;5.70;;;25.50;93.00;;;;;;5144119;27;20047;-76
2021/08/13 08:36:05;;;;;;;9.43;5.38;;;25.60;91.80;;;;;;5144489;27;20389;-75
2021/08/13 08:38:32;;;;;;;9.02;5.78;;;25.60;91.30;;;;;;5144148;27;20130;-76
2021/08/13 08:41:04;;;;;;;7.80;4.72;;;25.60;91.40;;;;;;5141705;27;20146;-74
2021/08/13 08:43:31;;;;;;;7.60;5.22;;;25.70;91.70;;;;;;5120186;27;20128;-75
2021/08/13 08:45:59;;;;;;;8.85;5.50;;;25.80;91.70;;;;;;5113653;28;20134;-75
2021/08/13 08:48:29;;;;;;;9.23;5.28;;;25.90;91.10;;;;;;5121771;27;20054;-76
2021/08/13 08:50:57;;;;;;;8.70;5.70;;;26.00;91.10;;;;;;5123424;28;20086;-76
2021/08/13 08:53:26;;;;;;;8.40;4.90;;;26.00;91.30;;;;;;5133433;27;20139;-77
2021/08/13 08:55:54;;;;;;;9.00;5.90;;;26.10;91.40;;;;;;5131959;27;20066;-74
2021/08/13 08:58:22;;;;;;;7.70;5.00;;;26.20;90.90;;;;;;5125195;28;20043;-74
2021/08/13 09:00:50;;;;;;;9.18;4.63;;;26.20;90.70;;;;;;5113678;28;20130;-73
2021/08/13 09:03:20;;;;;;;8.63;4.75;;;26.20;90.50;;;;;;5111917;28;20143;-75
2021/08/13 09:05:49;;;;;;;8.00;4.68;;;26.20;90.60;;;;;;5119682;28;20044;-76
2021/08/13 09:08:18;;;;;;;9.05;4.72;;;26.30;90.60;;;;;;5125743;28;20077;-75
2021/08/13 09:10:45;;;;;;;9.18;4.80;;;26.30;90.20;;;;;;5123816;28;20054;-76
2021/08/13 09:13:13;;;;;;;7.10;3.90;;;26.40;89.40;;;;;;5112780;28;20166;-74
2021/08/13 09:15:42;;;;;;;9.45;4.40;;;26.50;90.00;;;;;;5113285;28;20455;-76
2021/08/13 09:18:18;;;;;;;6.82;4.75;;;26.50;89.90;;;;;;5112500;28;20122;-76
2021/08/13 09:20:49;;;;;;;7.95;4.28;;;26.60;89.90;;;;;;5112648;28;20043;-74
2021/08/13 09:23:41;;;;;;;9.77;4.93;;;26.70;89.20;;;;;;5126782;27;20048;-76
2021/08/13 09:26:12;;;;;;;9.05;4.72;;;26.80;88.40;;;;;;5127236;27;20134;-77
2021/08/13 09:28:42;;;;;;;10.68;4.50;;;26.80;88.60;;;;;;5117429;27;20071;-75
2021/08/13 09:31:11;;;;;;;6.40;4.25;;;26.80;88.90;;;;;;5115204;27;20046;-76
2021/08/13 09:33:39;;;;;;;7.20;4.32;;;26.80;88.30;;;;;;5122856;27;20039;-77
2021/08/13 09:36:07;;;;;;;10.05;4.40;;;26.80;88.50;;;;;;5121832;27;20135;-79
2021/08/13 09:38:36;;;;;;;11.55;4.65;;;26.90;88.10;;;;;;5123136;27;20515;-78
2021/08/13 09:41:09;;;;;;;8.52;4.30;;;26.90;87.70;;;;;;5129455;27;20126;-78
2021/08/13 09:43:54;;;;;;;10.52;4.10;;;26.90;87.80;;;;;;5124224;27;20107;-79
2021/08/13 09:46:21;;;;;;;8.07;4.15;;;27.00;87.80;;;;;;5122191;27;20408;-76
2021/08/13 09:48:48;;;;;;;9.85;4.60;;;27.00;88.70;;;;;;5123454;27;20149;-76
2021/08/13 09:51:35;;;;;;;8.43;4.80;;;27.00;88.10;;;;;;5119227;27;20138;-78
2021/08/13 09:54:06;;;;;;;9.77;4.80;;;27.10;88.70;;;;;;5124719;27;20105;-78
2021/08/13 09:56:35;;;;;;;8.63;4.70;;;27.10;88.90;;;;;;5112650;28;20381;-79
2021/08/13 09:59:12;;;;;;;7.72;4.82;;;27.20;88.40;;;;;;5119715;28;20118;-78
2021/08/13 10:01:41;;;;;;;7.28;4.63;;;27.20;88.10;;;;;;5114587;28;20493;-78
2021/08/13 10:04:09;;;;;;;8.95;4.85;;;27.30;88.40;;;;;;5108219;28;20047;-79
2021/08/13 10:06:37;;;;;;;9.10;5.15;;;27.30;88.40;;;;;;5131343;27;20134;-79
2021/08/13 10:09:21;;;;;;;7.63;4.60;;;27.30;88.80;;;;;;5134107;28;20134;-79
2021/08/13 10:12:00;;;;;;;10.43;4.85;;;27.30;89.40;;;;;;5134055;27;20499;-78
2021/08/13 10:14:33;;;;;;;8.88;5.00;;;27.30;90.00;;;;;;5115563;28;20126;-79
2021/08/13 10:17:12;;;;;;;8.75;4.35;;;27.30;88.70;;;;;;5133874;27;20126;-79
2021/08/13 10:19:42;;;;;;;7.10;4.40;;;27.30;88.20;;;;;;5133755;27;20085;-78
2021/08/13 10:22:09;;;;;;;9.23;4.88;;;27.30;89.70;;;;;;5133843;27;20130;-77
2021/08/13 10:24:38;;;;;;;8.30;4.35;;;27.30;89.10;;;;;;5133983;28;20138;-78
2021/08/13 10:27:07;;;;;;;7.68;4.60;;;27.40;89.30;;;;;;5133811;28;20075;-78
2021/08/13 10:29:36;;;;;;;8.63;4.30;;;27.40;89.10;;;;;;5134042;27;20129;-78
2021/08/13 10:32:04;;;;;;;7.22;3.85;;;27.50;89.10;;;;;;5134114;28;20081;-78
2021/08/13 10:34:32;;;;;;;7.63;3.92;;;27.50;88.90;;;;;;5133591;27;20118;-79
2021/08/13 10:37:00;;;;;;;9.20;4.65;;;27.60;88.40;;;;;;5134238;28;20134;-78
2021/08/13 10:39:31;;;;;;;9.57;4.57;;;27.70;88.30;;;;;;5134261;27;20074;-78
2021/08/13 10:42:03;;;;;;;9.18;4.85;;;27.70;87.50;;;;;;5134016;28;20043;-80
2021/08/13 10:44:35;;;;;;;8.02;4.95;;;27.70;88.30;;;;;;5134006;28;20146;-78
2021/08/13 10:47:12;;;;;;;7.95;4.65;;;27.80;89.90;;;;;;5134404;27;20095;-78
2021/08/13 10:49:40;;;;;;;10.25;4.97;;;27.80;86.60;;;;;;5138152;27;20122;-79
2021/08/13 10:52:09;;;;;;;9.10;4.75;;;27.80;86.40;;;;;;5137302;27;20051;-78
2021/08/13 10:54:44;;;;;;;6.75;4.65;;;27.90;86.10;;;;;;5138290;27;20070;-79
2021/08/13 10:57:14;;;;;;;7.80;4.18;;;27.90;85.10;;;;;;5137804;27;20099;-78
2021/08/13 10:59:55;;;;;;;9.80;4.82;;;27.90;85.60;;;;;;5138326;27;20089;-78
2021/08/13 11:02:22;;;;;;;7.93;4.60;;;28.00;85.20;;;;;;5139847;27;20135;-78
2021/08/13 11:04:51;;;;;;;7.93;4.60;;;28.00;84.20;;;;;;5145475;27;20552;-78
2021/08/13 11:07:58;;;;;;;10.00;4.90;;;28.00;86.00;;;;;;5138458;27;20134;-78
2021/08/13 11:10:57;;;;;;;10.00;4.85;;;28.10;85.20;;;;;;5137822;27;20126;-78
2021/08/13 11:13:26;;;;;;;9.60;5.18;;;28.20;83.50;;;;;;5137586;27;20075;-78
2021/08/13 11:15:54;;;;;;;9.38;4.70;;;28.20;84.10;;;;;;5136820;27;20562;-79
2021/08/13 11:18:34;;;;;;;11.80;4.95;;;28.20;84.60;;;;;;5137578;27;20058;-79
2021/08/13 11:21:03;;;;;;;9.05;4.68;;;28.30;84.10;;;;;;5138039;27;20104;-78
2021/08/13 11:23:31;;;;;;;11.90;5.25;;;28.30;83.40;;;;;;5147764;27;20054;-79
2021/08/13 11:25:58;;;;;;;8.05;4.30;;;28.40;83.00;;;;;;5137747;27;20463;-77
2021/08/13 11:28:30;;;;;;;6.75;4.45;;;28.40;82.90;;;;;;5137317;27;20091;-76
2021/08/13 11:30:59;;;;;;;8.18;4.72;;;28.50;82.30;;;;;;5137090;27;20043;-78
2021/08/13 11:33:42;;;;;;;7.55;4.03;;;28.60;82.90;;;;;;5136834;27;20122;-78
2021/08/13 11:36:10;;;;;;;9.23;5.20;;;28.60;82.50;;;;;;5137114;27;20476;-76
2021/08/13 11:38:58;;;;;;;9.45;4.68;;;28.80;82.10;;;;;;5129885;27;20082;-77
2021/08/13 11:41:26;;;;;;;8.25;4.57;;;28.90;81.80;;;;;;5119955;27;20047;-78
2021/08/13 11:43:57;;;;;;;8.52;4.75;;;29.00;81.40;;;;;;5127719;27;20138;-79
2021/08/13 11:46:27;;;;;;;7.80;4.63;;;29.00;80.40;;;;;;5125960;27;20066;-79
2021/08/13 11:49:15;;;;;;;8.32;4.78;;;29.10;80.00;;;;;;5129835;27;20631;-79
2021/08/13 11:51:45;;;;;;;9.65;5.10;;;29.30;80.40;;;;;;5134584;27;20048;-79
2021/08/13 11:54:26;;;;;;;10.93;5.45;;;29.30;78.70;;;;;;5125717;27;20051;-79
2021/08/13 11:56:54;;;;;;;9.30;4.40;;;29.30;78.40;;;;;;5124876;27;20043;-76
2021/08/13 11:59:23;;;;;;;8.93;4.90;;;29.30;78.80;;;;;;5122710;27;20096;-78
2021/08/13 12:01:51;;;;;;;6.45;4.03;;;29.40;77.60;;;;;;5125277;27;20121;-78
2021/08/13 12:04:20;;;;;;;6.97;4.22;;;29.40;77.80;;;;;;5128661;27;20130;-77
2021/08/13 12:07:02;;;;;;;6.40;4.30;;;29.50;77.90;;;;;;5121493;27;20057;-79
2021/08/13 12:09:37;;;;;;;7.93;4.63;;;29.40;77.50;;;;;;5106353;27;20131;-77
2021/08/13 12:12:06;;;;;;;8.05;3.97;;;29.40;77.00;;;;;;5130568;27;20043;-78
2021/08/13 12:14:35;;;;;;;9.48;4.25;;;29.40;77.80;;;;;;5114000;27;20119;-78
2021/08/13 12:17:03;;;;;;;8.80;4.97;;;29.50;77.70;;;;;;5101792;28;20039;-79
2021/08/13 12:19:33;;;;;;;8.43;4.50;;;29.60;77.10;;;;;;5123214;27;20130;-77
2021/08/13 12:22:03;;;;;;;7.43;4.18;;;29.60;77.00;;;;;;5125911;27;20078;-79
2021/08/13 12:24:32;;;;;;;6.57;4.40;;;29.70;77.30;;;;;;5121680;27;20067;-79
2021/08/13 12:27:02;;;;;;;7.53;4.82;;;29.80;75.10;;;;;;5120201;27;20042;-80
2021/08/13 12:29:30;;;;;;;6.93;4.50;;;29.80;76.00;;;;;;5129971;27;20058;-79
2021/08/13 12:32:01;;;;;;;8.70;5.15;;;29.80;77.30;;;;;;5123567;27;20126;-79
2021/08/13 12:34:31;;;;;;;6.50;4.50;;;29.90;77.40;;;;;;5119494;27;20130;-79
2021/08/13 12:37:03;;;;;;;9.02;4.85;;;29.90;76.90;;;;;;5124397;27;20126;-77
2021/08/13 12:39:31;;;;;;;7.97;4.40;;;29.90;76.20;;;;;;5112880;27;20126;-79
2021/08/13 12:41:58;;;;;;;6.70;4.13;;;29.90;76.20;;;;;;5120389;27;20138;-78
2021/08/13 12:44:26;;;;;;;7.53;4.10;;;30.00;76.40;;;;;;5123416;27;20130;-80
2021/08/13 12:46:54;;;;;;;7.00;4.28;;;30.10;75.60;;;;;;5127264;27;20043;-80
2021/08/13 12:49:23;;;;;;;9.48;4.95;;;30.10;75.30;;;;;;5091790;28;20138;-80
2021/08/13 12:52:08;;;;;;;9.77;5.57;;;30.20;75.00;;;;;;5099327;28;20568;-79
2021/08/13 12:54:38;;;;;;;8.68;4.78;;;30.20;74.10;;;;;;5110895;28;20083;-80
2021/08/13 12:57:11;;;;;;;6.88;4.63;;;30.20;74.60;;;;;;5119383;27;20141;-81